Terminal Aerodrome Forecast
Issued by NWS Topeka, KS

Home | Current Version | Previous Version | Graphics & Text | Print | Product List | Glossary On
Versions: 1 2 3 4 5 6 7 8 9 10 11 12 13 14 15 16 17
619
FTUS43 KTOP 241130
TAFTOP
TAF
KTOP 241130Z 2412/2512 23006KT P6SM BKN150
     FM242200 04006KT P6SM VCTS SCT060CB BKN150
     FM250700 03005KT P6SM BKN200=

USA.gov is the U.S. government's official web portal to all federal, state and local government web resources and services.